Coffeyville, Kansas
Current Conditions -  °F | °C
As of 4:52 PM on Monday 20 Oct 2014 (Local Time) from KCFV Reporting Station
Clear Clear  
Wind Chill: 25°   Ceiling: Unl
Heat Index: 26°   Visibility: 10mi
Dew Point: 12°   Wind: 6mph
Humidity: 45%   Direction: 80°E
Pressure: 30.01"   Gusts: NA
Location:  37.03°N, 95.62°W
Report Text: KCFV 202152Z AUTO 08005KT 10SM CLR 25/12 A3001 RMK AO2 SLP158 T02500122
Loading
Personal Weather Stations






























Interactive Weather Map
Tropical Storm Tracking
New forecast layout! Learn more

10-Day Weather Forecast

Advertisements
Track Severe Weather on mobile